To NAV CANADA Home Page Login to a new session Search on AWWS site Disclaimer Vers la page française équivalente Tips FAQ What's new on the site To the Forecasts and Observations / NOTAM section To "File a Flight Plan" website Publications and other links Update of the User's profile FIC Telephone Numbers My Weather Data Folder Route Weather Data Regional Weather Data Local Weather Data To the Forecasts and Observations / NOTAM section
Request Generated 10/21/2018 at 06:37:56 UTC . Weather information available at that time is displayed.

METAR/TAF

SYDNEY/J.A. DOUGLAS MCCURDY/NS    

METAR CYQY 210600Z CCA 20015G28KT 5SM RA BR FEW006 OVC009 15/14 A2948 RMK ST1NS7 /R23/ SLP983 DENSITY ALT 700FT=
METAR CYQY 210600Z 20015G28KT 5SM RA BR FEW006 OVC009 15/14 A2948 RMK ST1NS7 SLP983 DENSITY ALT 700FT=
METAR CYQY 210500Z 19031G49KT 5SM RA BR FEW006 OVC009 15/14 A2950 RMK ST1NS7 SLP990 DENSITY ALT 800FT=
METAR CYQY 210400Z 20024G43KT 5SM RA BR FEW006 OVC009 15/14 A2952 RMK ST2NS6 SLP998 DENSITY ALT 800FT=

TAF CYQY 210539Z 2106/2118 20020G45KT 4SM -RA BR OVC007 TEMPO
2106/2109 6SM -RA OVC010
BECMG 2107/2109 VRB03KT
FM210900 VRB03KT 5SM -DZ BR BKN005 OVC008 TEMPO 2109/2115 P6SM
NSW SCT005 OVC008
FM211500 03010KT 5SM -RA -DZ BR OVC005 TEMPO 2115/2118 P6SM NSW
SCT005 OVC025
RMK NXT FCST BY 211200Z=
Your time UTC time
Weather data provided by Environment Canada and NAV CANADA